»·PEaware :: N16RD KHMT-KSNA

N16RD :: KHMT-KSNA

FLIGHT INFORMATION

Flight Status: Arrived
Operator: Privately registered:
United States
More flights under this callsign
Pilot: Brett B. (12105)
Aircraft: CESSNA 172 SKYHAWK
(C172)
More flights by this aircraft type
Origin: KHMT Hemet-Ryan
United States
Destination: KSNA John Wayne-Orange Co
United States
More flights between these airports :: More routes between these airports
Route: +
File this flight plan on PilotEdge
Remarks:
Altitude:
(Current/Filed)
6,500ft
Speed:
(Current/Filed)
115kts
Departed: 07-Sep-17 02:26 PM
Arrived: 07-Sep-17 02:38 PM
Distance/Time
Traveled:
42nm/0:12
Distance/Time
To Go:
Arrived

Flight Plot

Page will automatically refresh every two minutes.


Map Options




Map Legend


Flown Route
Filed Route
Departure Airport
Arrival Airport
Navaid (VOR, NDB)
Fix

Horizontal Profiles

Position Reports

Time Latitude Longitude Heading Altitude Ground
Speed
07-Sep-17 13:24 33.675426 -117.871381 25 59ft 0kts
07-Sep-17 13:25 33.675427 -117.871381 25 59ft 0kts
07-Sep-17 13:26 33.675427 -117.871380 25 59ft 0kts
07-Sep-17 13:27 33.675427 -117.871380 25 59ft 0kts
07-Sep-17 13:28 33.675427 -117.871380 25 59ft 0kts
07-Sep-17 13:29 33.675427 -117.871380 25 59ft 0kts
07-Sep-17 13:30 33.675428 -117.871380 25 59ft 0kts
07-Sep-17 13:31 33.675428 -117.871380 25 59ft 0kts
07-Sep-17 13:32 33.675428 -117.871380 25 59ft 0kts
07-Sep-17 13:33 33.675428 -117.871380 25 59ft 0kts
07-Sep-17 13:34 33.675428 -117.871379 25 59ft 0kts
07-Sep-17 13:35 33.675429 -117.871379 25 59ft 0kts
07-Sep-17 13:36 33.675429 -117.871379 25 59ft 0kts
07-Sep-17 13:37 33.675429 -117.871379 25 59ft 0kts
07-Sep-17 13:38 33.675429 -117.871379 25 59ft 0kts
07-Sep-17 13:39 33.675430 -117.871379 25 59ft 0kts
07-Sep-17 13:40 33.675430 -117.871379 25 59ft 0kts
07-Sep-17 13:41 33.675430 -117.871379 25 59ft 0kts
07-Sep-17 13:42 33.675430 -117.871378 25 59ft 0kts
07-Sep-17 13:43 33.675430 -117.871378 25 59ft 0kts
07-Sep-17 13:44 33.675431 -117.871378 25 59ft 0kts
07-Sep-17 13:45 33.675431 -117.871378 25 59ft 0kts
07-Sep-17 13:46 33.675431 -117.871378 25 59ft 0kts
07-Sep-17 13:47 33.675431 -117.871378 26 59ft 0kts
07-Sep-17 13:48 33.675432 -117.871378 26 59ft 0kts
07-Sep-17 13:49 33.675432 -117.871378 26 59ft 0kts
07-Sep-17 13:50 33.675432 -117.871377 26 59ft 0kts
07-Sep-17 13:51 33.675432 -117.871377 26 59ft 0kts
07-Sep-17 13:52 33.675432 -117.871377 26 59ft 0kts
07-Sep-17 13:53 33.675433 -117.871377 26 59ft 0kts
07-Sep-17 13:54 33.675433 -117.871377 26 59ft 0kts
07-Sep-17 13:55 33.675433 -117.871377 26 59ft 0kts
07-Sep-17 13:56 33.675433 -117.871377 26 59ft 0kts
07-Sep-17 13:57 33.675434 -117.871376 26 59ft 0kts
07-Sep-17 13:58 33.675434 -117.871376 26 59ft 0kts
07-Sep-17 13:59 33.675434 -117.871376 26 59ft 0kts
07-Sep-17 14:00 33.675434 -117.871376 26 59ft 0kts
07-Sep-17 14:01 33.675434 -117.871376 26 59ft 0kts
07-Sep-17 14:02 33.675435 -117.871376 26 59ft 0kts
07-Sep-17 14:03 33.675435 -117.871376 26 59ft 0kts
07-Sep-17 14:04 33.675435 -117.871376 26 59ft 0kts
07-Sep-17 14:05 33.675435 -117.871375 26 59ft 0kts
07-Sep-17 14:06 33.675436 -117.871375 26 59ft 0kts
07-Sep-17 14:07 33.675436 -117.871375 26 59ft 0kts
07-Sep-17 14:08 33.675436 -117.871375 26 59ft 0kts
07-Sep-17 14:09 33.675436 -117.871375 26 59ft 0kts
07-Sep-17 14:10 33.675436 -117.871375 26 59ft 0kts
07-Sep-17 14:11 33.675437 -117.871375 26 59ft 0kts
07-Sep-17 14:12 33.675437 -117.871375 26 59ft 0kts
07-Sep-17 14:13 33.675437 -117.871374 26 59ft 0kts
07-Sep-17 14:14 33.675437 -117.871374 26 59ft 0kts
07-Sep-17 14:15 33.675438 -117.871374 26 59ft 0kts
07-Sep-17 14:16 33.675438 -117.871374 26 59ft 0kts
07-Sep-17 14:17 33.675438 -117.871374 26 59ft 0kts
07-Sep-17 14:18 33.675438 -117.871374 26 59ft 0kts
07-Sep-17 14:19 33.675438 -117.871374 26 59ft 0kts
07-Sep-17 14:20 33.675439 -117.871373 26 59ft 0kts
07-Sep-17 14:21 33.675439 -117.871373 26 59ft 0kts
07-Sep-17 14:22 33.675439 -117.871373 26 59ft 0kts
07-Sep-17 14:23 33.675439 -117.871373 26 59ft 0kts
07-Sep-17 14:24 33.675440 -117.871373 26 59ft 0kts
07-Sep-17 14:25 33.675440 -117.871373 26 59ft 0kts
07-Sep-17 14:26 33.675440 -117.871373 26 59ft 0kts
07-Sep-17 14:27 33.677293 -117.869331 28 59ft 29kts
07-Sep-17 14:28 33.680818 -117.866427 113 59ft 0kts
07-Sep-17 14:29 33.680817 -117.866427 113 59ft 0kts
07-Sep-17 14:30 33.676956 -117.867956 208 63ft 72kts
07-Sep-17 14:31 33.665442 -117.887516 327 736ft 98kts
07-Sep-17 14:32 33.690678 -117.898260 342 1467ft 95kts
07-Sep-17 14:33 33.715435 -117.908702 342 2166ft 93kts
07-Sep-17 14:34 33.742151 -117.920081 342 2408ft 112kts
07-Sep-17 14:35 33.771269 -117.924317 56 2404ft 111kts
07-Sep-17 14:36 33.785877 -117.890630 62 2400ft 115kts
07-Sep-17 14:37 33.778366 -117.854602 127 2409ft 127kts
07-Sep-17 14:38 33.757604 -117.827956 166 2295ft 95kts
07-Sep-17 14:39 33.729367 -117.837894 200 1177ft 115kts
07-Sep-17 14:40 33.702586 -117.851880 205 546ft 94kts
07-Sep-17 14:41 33.679593 -117.866388 203 64ft 73kts
07-Sep-17 14:42 33.674142 -117.868549 108 59ft 0kts
07-Sep-17 14:43 33.673850 -117.867652 115 59ft 0kts
07-Sep-17 14:44 33.676094 -117.865729 25 59ft 19kts
07-Sep-17 14:45 33.676075 -117.863947 115 59ft 0kts
07-Sep-17 14:46 33.676075 -117.863947 115 59ft 0kts
07-Sep-17 14:47 33.676074 -117.863945 115 59ft 0kts
07-Sep-17 14:48 33.676074 -117.863945 115 59ft 0kts
07-Sep-17 14:49 33.676074 -117.863945 115 59ft 0kts

Navigation Log

Ident Type
Flight plan parsing failed, navigation log unavailable